createdAt,value
2022-08-27T00:02:14.471Z,16.00
2022-08-27T00:04:41.826Z,16.00
2022-08-27T00:07:09.424Z,16.10
2022-08-27T00:09:39.911Z,16.10
2022-08-27T00:12:09.157Z,16.10
2022-08-27T00:14:39.658Z,16.10
2022-08-27T00:17:07.467Z,16.10
2022-08-27T00:19:37.948Z,16.10
2022-08-27T00:22:06.402Z,16.20
2022-08-27T00:24:33.616Z,16.20
2022-08-27T00:27:00.815Z,16.10
2022-08-27T00:29:28.659Z,16.20
2022-08-27T00:31:59.973Z,16.20
2022-08-27T00:34:30.235Z,16.10
2022-08-27T00:36:57.799Z,16.10
2022-08-27T00:39:24.620Z,16.10
2022-08-27T00:41:51.469Z,16.10
2022-08-27T00:44:18.557Z,16.10
2022-08-27T00:46:50.064Z,16.10
2022-08-27T00:49:22.508Z,16.10
2022-08-27T00:52:16.660Z,16.20
2022-08-27T00:54:47.060Z,16.20
2022-08-27T00:57:15.529Z,16.10
2022-08-27T00:59:43.974Z,16.20
2022-08-27T01:02:22.112Z,16.20
2022-08-27T01:05:04.023Z,16.20
2022-08-27T01:07:33.978Z,16.10
2022-08-27T01:10:03.065Z,16.10
2022-08-27T01:12:41.746Z,16.10
2022-08-27T01:15:14.927Z,16.10
2022-08-27T01:17:48.130Z,16.00
2022-08-27T01:20:41.439Z,16.00
2022-08-27T01:23:18.030Z,16.00
2022-08-27T01:25:51.762Z,16.00
2022-08-27T01:28:23.586Z,16.00
2022-08-27T01:30:53.898Z,16.00
2022-08-27T01:33:24.156Z,16.00
2022-08-27T01:35:54.227Z,16.10
2022-08-27T01:38:31.010Z,16.10
2022-08-27T01:41:00.218Z,16.10
2022-08-27T01:43:27.702Z,16.10
2022-08-27T01:45:54.807Z,16.10
2022-08-27T01:48:23.062Z,16.10
2022-08-27T01:50:53.370Z,16.10
2022-08-27T01:53:26.130Z,16.20
2022-08-27T01:55:54.847Z,16.10
2022-08-27T01:58:25.452Z,16.10
2022-08-27T02:00:56.606Z,16.20
2022-08-27T02:03:25.281Z,16.20
2022-08-27T02:05:59.781Z,16.20
2022-08-27T02:08:26.519Z,16.20
2022-08-27T02:10:56.381Z,16.20
2022-08-27T02:13:26.812Z,16.30
2022-08-27T02:15:54.231Z,16.30
2022-08-27T02:18:29.706Z,16.30
2022-08-27T02:20:59.278Z,16.30
2022-08-27T02:23:26.507Z,16.30
2022-08-27T02:25:54.196Z,16.30
2022-08-27T02:28:21.141Z,16.30
2022-08-27T02:30:58.386Z,16.30
2022-08-27T02:33:26.613Z,16.30
2022-08-27T02:35:53.887Z,16.30
2022-08-27T02:38:20.939Z,16.30
2022-08-27T02:40:47.975Z,16.30
2022-08-27T02:43:16.091Z,16.30
2022-08-27T02:45:55.312Z,16.30
2022-08-27T02:48:30.605Z,16.30
2022-08-27T02:50:57.663Z,16.40
2022-08-27T02:53:24.594Z,16.30
2022-08-27T02:55:55.073Z,16.30
2022-08-27T02:58:21.844Z,16.30
2022-08-27T03:00:48.921Z,16.30
2022-08-27T03:03:16.041Z,16.30
2022-08-27T03:05:43.396Z,16.30
2022-08-27T03:08:10.529Z,16.30
2022-08-27T03:10:40.020Z,16.30
2022-08-27T03:13:07.253Z,16.30
2022-08-27T03:15:37.396Z,16.30
2022-08-27T03:18:19.917Z,16.30
2022-08-27T03:20:53.051Z,16.30
2022-08-27T03:23:28.593Z,16.30
2022-08-27T03:26:04.997Z,16.30
2022-08-27T03:28:36.540Z,16.30
2022-08-27T03:31:13.516Z,16.30
2022-08-27T03:33:43.815Z,16.40
2022-08-27T03:36:10.603Z,16.30
2022-08-27T03:38:38.018Z,16.40
2022-08-27T03:41:07.989Z,16.40
2022-08-27T03:43:36.145Z,16.40
2022-08-27T03:46:03.388Z,16.30
2022-08-27T03:48:32.266Z,16.40
2022-08-27T03:51:06.849Z,16.40
2022-08-27T03:53:35.656Z,16.40
2022-08-27T03:56:10.571Z,16.40
2022-08-27T03:58:38.137Z,16.40
2022-08-27T04:01:09.560Z,16.40
2022-08-27T04:03:38.883Z,16.40
2022-08-27T04:06:06.344Z,16.40
2022-08-27T04:08:33.567Z,16.40
2022-08-27T04:11:00.601Z,16.40
2022-08-27T04:13:27.310Z,16.40
2022-08-27T04:15:57.156Z,16.30
2022-08-27T04:18:24.228Z,16.30
2022-08-27T04:20:52.663Z,16.30
2022-08-27T04:23:22.816Z,16.30
2022-08-27T04:25:49.690Z,16.40
2022-08-27T04:28:16.905Z,16.40
2022-08-27T04:30:45.769Z,16.40
2022-08-27T04:33:16.746Z,16.40
2022-08-27T04:35:46.723Z,16.30
2022-08-27T04:38:13.647Z,16.30
2022-08-27T04:41:02.480Z,16.30
2022-08-27T04:43:29.834Z,16.20
2022-08-27T04:46:03.276Z,16.20
2022-08-27T04:48:30.531Z,16.30
2022-08-27T04:50:57.681Z,16.30
2022-08-27T04:53:28.117Z,16.40
2022-08-27T04:55:56.990Z,16.40
2022-08-27T04:58:27.724Z,16.50
2022-08-27T05:00:59.958Z,16.50
2022-08-27T05:03:32.415Z,16.40
2022-08-27T05:06:02.764Z,16.40
2022-08-27T05:08:33.515Z,16.40
2022-08-27T05:11:06.828Z,16.40
2022-08-27T05:13:34.170Z,16.30
2022-08-27T05:16:14.039Z,16.30
2022-08-27T05:18:48.215Z,16.30
2022-08-27T05:21:22.702Z,16.30
2022-08-27T05:23:50.174Z,16.30
2022-08-27T05:26:17.497Z,16.30
2022-08-27T05:28:44.850Z,16.30
2022-08-27T05:31:14.682Z,16.40
2022-08-27T05:33:42.910Z,16.30
2022-08-27T05:36:49.328Z,16.30
2022-08-27T05:39:17.633Z,16.20
2022-08-27T05:41:44.831Z,16.30
2022-08-27T05:44:39.669Z,16.30
2022-08-27T05:46:59.413Z,16.30
2022-08-27T05:49:26.214Z,16.30
2022-08-27T05:51:56.229Z,16.30
2022-08-27T05:54:26.015Z,16.30
2022-08-27T05:56:53.377Z,16.20
2022-08-27T05:59:38.572Z,16.20
2022-08-27T06:02:07.455Z,16.20
2022-08-27T06:04:37.006Z,16.30
2022-08-27T06:07:04.810Z,16.30
2022-08-27T06:09:31.969Z,16.30
2022-08-27T06:12:02.923Z,16.40
2022-08-27T06:14:30.173Z,16.40
2022-08-27T06:17:00.385Z,16.50
2022-08-27T06:19:27.696Z,16.50
2022-08-27T06:22:09.813Z,16.50
2022-08-27T06:24:39.608Z,16.60
2022-08-27T06:27:11.451Z,16.70
2022-08-27T06:29:40.922Z,16.70
2022-08-27T06:32:09.933Z,16.70
2022-08-27T06:34:38.173Z,16.70
2022-08-27T06:37:09.054Z,16.70
2022-08-27T06:39:38.249Z,16.70
2022-08-27T06:42:06.920Z,16.80
2022-08-27T06:44:34.728Z,16.80
2022-08-27T06:47:04.176Z,16.90
2022-08-27T06:49:31.912Z,17.00
2022-08-27T06:51:58.738Z,17.00
2022-08-27T06:54:26.051Z,17.10
2022-08-27T06:56:53.039Z,17.00
2022-08-27T06:59:23.085Z,17.00
2022-08-27T07:01:51.722Z,17.10
2022-08-27T07:04:30.778Z,17.10
2022-08-27T07:07:06.442Z,17.10
2022-08-27T07:09:40.987Z,17.00
2022-08-27T07:12:11.343Z,17.10
2022-08-27T07:14:42.017Z,17.10
2022-08-27T07:17:16.381Z,17.10
2022-08-27T07:19:46.872Z,17.10
2022-08-27T07:22:16.278Z,17.10
2022-08-27T07:24:43.147Z,17.10
2022-08-27T07:27:15.735Z,17.10
2022-08-27T07:29:51.967Z,17.10
2022-08-27T07:32:19.556Z,17.10
2022-08-27T07:34:49.970Z,17.10
2022-08-27T07:37:16.989Z,17.10
2022-08-27T07:39:44.316Z,17.10
2022-08-27T07:42:29.991Z,17.10
2022-08-27T07:45:00.056Z,17.10
2022-08-27T07:47:32.193Z,17.10
2022-08-27T07:49:59.428Z,17.10
2022-08-27T07:52:32.710Z,17.10
2022-08-27T07:55:01.667Z,17.00
2022-08-27T07:57:28.954Z,17.00
2022-08-27T07:59:55.749Z,17.00
2022-08-27T08:02:23.032Z,17.00
2022-08-27T08:04:50.054Z,17.00
2022-08-27T08:07:17.022Z,17.10
2022-08-27T08:09:43.785Z,17.10
2022-08-27T08:12:11.141Z,17.20
2022-08-27T08:14:38.761Z,17.40
2022-08-27T08:17:10.358Z,17.60
2022-08-27T08:19:37.912Z,17.70
2022-08-27T08:22:05.894Z,17.90
2022-08-27T08:24:34.689Z,18.20
2022-08-27T08:27:07.986Z,18.20
2022-08-27T08:29:35.464Z,18.30
2022-08-27T08:32:07.123Z,18.30
2022-08-27T08:34:38.259Z,18.30
2022-08-27T08:37:06.547Z,18.20
2022-08-27T08:39:36.938Z,18.00
2022-08-27T08:42:09.538Z,17.90
2022-08-27T08:44:48.772Z,17.90
2022-08-27T08:47:31.881Z,17.90
2022-08-27T08:50:25.147Z,18.00
2022-08-27T08:52:59.824Z,18.10
2022-08-27T08:55:47.325Z,18.30
2022-08-27T08:58:41.779Z,18.50
2022-08-27T09:01:10.240Z,18.60
2022-08-27T09:03:42.439Z,18.70
2022-08-27T09:06:39.104Z,18.80
2022-08-27T09:09:17.487Z,18.90
2022-08-27T09:12:05.920Z,19.00
2022-08-27T09:15:12.530Z,19.10
2022-08-27T09:17:42.059Z,19.10
2022-08-27T09:20:14.071Z,19.20
2022-08-27T09:22:57.041Z,19.10
2022-08-27T09:25:36.602Z,19.30
2022-08-27T09:28:30.679Z,19.40
2022-08-27T09:31:05.691Z,19.40
2022-08-27T09:33:43.767Z,19.40
2022-08-27T09:36:23.960Z,19.40
2022-08-27T09:39:02.406Z,19.40
2022-08-27T09:41:45.103Z,19.40
2022-08-27T09:44:19.567Z,19.40
2022-08-27T09:47:04.159Z,19.40
2022-08-27T09:49:34.757Z,19.40
2022-08-27T09:52:02.691Z,19.50
2022-08-27T09:54:42.891Z,19.80
2022-08-27T09:57:14.251Z,20.00
2022-08-27T09:59:51.515Z,20.00
2022-08-27T10:02:22.480Z,20.20
2022-08-27T10:04:54.936Z,20.40
2022-08-27T10:07:57.313Z,20.60
2022-08-27T10:10:59.377Z,20.80
2022-08-27T10:13:29.305Z,21.20
2022-08-27T10:16:33.572Z,21.50
2022-08-27T10:19:32.190Z,21.80
2022-08-27T10:22:32.079Z,21.90
2022-08-27T10:25:13.717Z,21.80
2022-08-27T10:27:49.824Z,21.30
2022-08-27T10:30:33.478Z,21.10
2022-08-27T10:33:06.009Z,21.20
2022-08-27T10:36:27.033Z,21.60
2022-08-27T10:39:05.134Z,21.80
2022-08-27T10:41:46.144Z,22.10
2022-08-27T10:44:35.509Z,22.20
2022-08-27T10:47:19.652Z,22.60
2022-08-27T10:49:49.322Z,23.10
2022-08-27T10:52:23.574Z,23.10
2022-08-27T10:55:32.880Z,23.10
2022-08-27T10:58:29.047Z,22.80
2022-08-27T11:01:24.398Z,22.50
2022-08-27T11:04:09.023Z,22.50
2022-08-27T11:06:50.805Z,22.40
2022-08-27T11:10:08.891Z,21.90
2022-08-27T11:12:39.956Z,21.70
2022-08-27T11:15:33.495Z,21.90
2022-08-27T11:18:16.119Z,21.90
2022-08-27T11:21:10.262Z,22.10
2022-08-27T11:23:43.975Z,22.30
2022-08-27T11:26:14.369Z,22.40
2022-08-27T11:28:54.246Z,22.40
2022-08-27T11:32:04.633Z,22.40
2022-08-27T11:34:48.689Z,22.10
2022-08-27T11:37:30.936Z,22.20
2022-08-27T11:40:40.067Z,22.10
2022-08-27T11:43:24.800Z,22.30
2022-08-27T11:46:04.633Z,22.60
2022-08-27T11:48:44.121Z,22.70
2022-08-27T11:51:31.148Z,22.50
2022-08-27T11:54:02.022Z,22.40
2022-08-27T11:56:28.791Z,22.30
2022-08-27T11:58:57.485Z,22.40
2022-08-27T12:01:30.584Z,22.40
2022-08-27T12:07:18.444Z,22.70
2022-08-27T12:09:59.008Z,23.00
2022-08-27T12:13:03.036Z,23.20
2022-08-27T12:15:33.874Z,23.70
2022-08-27T12:18:16.586Z,23.60
2022-08-27T12:20:55.125Z,23.30
2022-08-27T12:23:49.602Z,23.10
2022-08-27T12:26:25.517Z,22.90
2022-08-27T12:29:19.076Z,22.50
2022-08-27T12:31:51.573Z,22.20
2022-08-27T12:34:27.728Z,22.10
2022-08-27T12:36:55.858Z,22.00
2022-08-27T12:39:29.960Z,22.00
2022-08-27T12:41:57.058Z,22.00
2022-08-27T12:44:30.832Z,22.00
2022-08-27T12:47:05.380Z,22.10
2022-08-27T12:49:55.524Z,21.80
2022-08-27T12:52:25.544Z,21.50
2022-08-27T12:55:34.126Z,21.50
2022-08-27T12:58:26.230Z,21.70
2022-08-27T13:01:24.356Z,21.70
2022-08-27T13:03:57.080Z,21.90
2022-08-27T13:06:36.503Z,22.00
2022-08-27T13:09:07.561Z,22.10
2022-08-27T13:11:56.684Z,22.30
2022-08-27T13:14:25.862Z,22.40
2022-08-27T13:17:07.009Z,22.50
2022-08-27T13:19:51.505Z,22.70
2022-08-27T13:22:26.774Z,22.70
2022-08-27T13:25:03.638Z,22.60
2022-08-27T13:27:33.412Z,22.30
2022-08-27T13:30:06.419Z,22.10
2022-08-27T13:32:34.016Z,21.80
2022-08-27T13:35:09.464Z,21.50
2022-08-27T13:37:43.483Z,21.30
2022-08-27T13:40:11.254Z,20.90
2022-08-27T13:42:45.393Z,20.90
2022-08-27T13:45:24.098Z,20.90
2022-08-27T13:47:53.943Z,20.90
2022-08-27T13:50:30.822Z,21.00
2022-08-27T13:53:29.676Z,21.10
2022-08-27T13:56:02.947Z,21.20
2022-08-27T13:58:33.512Z,21.40
2022-08-27T14:01:32.900Z,21.50
2022-08-27T14:04:09.013Z,21.50
2022-08-27T14:06:49.492Z,21.60
2022-08-27T14:09:22.845Z,21.80
2022-08-27T14:11:59.983Z,22.10
2022-08-27T14:14:29.955Z,22.30
2022-08-27T14:17:08.777Z,22.50
2022-08-27T14:19:36.466Z,22.60
2022-08-27T14:22:04.809Z,22.70
2022-08-27T14:24:34.061Z,22.70
2022-08-27T14:27:13.627Z,22.40
2022-08-27T14:29:40.439Z,22.20
2022-08-27T14:32:07.825Z,21.90
2022-08-27T14:34:35.551Z,21.50
2022-08-27T14:37:03.850Z,21.40
2022-08-27T14:39:31.418Z,21.50
2022-08-27T14:41:58.630Z,21.60
2022-08-27T14:44:28.655Z,21.80
2022-08-27T14:47:02.619Z,21.90
2022-08-27T14:49:35.285Z,21.90
2022-08-27T14:52:04.327Z,21.80
2022-08-27T14:54:35.172Z,21.40
2022-08-27T14:57:03.767Z,21.20
2022-08-27T14:59:32.114Z,21.20
2022-08-27T15:02:05.610Z,21.20
2022-08-27T15:04:33.262Z,21.10
2022-08-27T15:07:03.786Z,21.20
2022-08-27T15:09:31.278Z,21.40
2022-08-27T15:12:04.588Z,21.50
2022-08-27T15:14:38.221Z,21.40
2022-08-27T15:17:11.025Z,21.40
2022-08-27T15:19:54.081Z,21.70
2022-08-27T15:22:24.534Z,22.00
2022-08-27T15:24:55.344Z,22.30
2022-08-27T15:27:23.391Z,22.40
2022-08-27T15:30:00.005Z,22.00
2022-08-27T15:32:33.169Z,21.60
2022-08-27T15:35:04.862Z,21.30
2022-08-27T15:37:32.013Z,21.30
2022-08-27T15:39:59.052Z,21.20
2022-08-27T15:42:29.165Z,21.20
2022-08-27T15:44:57.017Z,21.20
2022-08-27T15:47:25.009Z,21.30
2022-08-27T15:49:52.179Z,21.70
2022-08-27T15:52:40.255Z,22.50
2022-08-27T15:55:18.861Z,23.10
2022-08-27T15:57:48.941Z,23.00
2022-08-27T16:00:19.437Z,22.70
2022-08-27T16:02:49.846Z,22.20
2022-08-27T16:05:17.672Z,21.70
2022-08-27T16:07:44.928Z,21.30
2022-08-27T16:10:15.003Z,21.00
2022-08-27T16:12:41.916Z,21.00
2022-08-27T16:15:09.107Z,21.00
2022-08-27T16:17:36.853Z,20.90
2022-08-27T16:20:08.157Z,20.90
2022-08-27T16:22:35.021Z,20.90
2022-08-27T16:25:05.291Z,20.80
2022-08-27T16:27:38.472Z,20.70
2022-08-27T16:30:06.438Z,20.60
2022-08-27T16:32:33.510Z,20.50
2022-08-27T16:35:00.628Z,20.30
2022-08-27T16:37:30.638Z,20.20
2022-08-27T16:39:57.807Z,20.10
2022-08-27T16:42:24.759Z,20.00
2022-08-27T16:44:54.583Z,20.00
2022-08-27T16:47:27.149Z,19.90
2022-08-27T16:50:24.336Z,19.80
2022-08-27T16:52:57.706Z,19.70
2022-08-27T16:55:24.510Z,19.60
2022-08-27T16:57:51.221Z,19.60
2022-08-27T17:00:19.180Z,19.60
2022-08-27T17:02:46.070Z,19.60
2022-08-27T17:05:33.965Z,19.50
2022-08-27T17:08:05.738Z,19.50
2022-08-27T17:10:46.655Z,19.50
2022-08-27T17:13:20.242Z,19.40
2022-08-27T17:15:52.588Z,19.30
2022-08-27T17:18:21.724Z,19.20
2022-08-27T17:20:54.782Z,19.10
2022-08-27T17:23:37.449Z,19.00
2022-08-27T17:26:11.885Z,18.80
2022-08-27T17:28:43.315Z,18.80
2022-08-27T17:31:28.200Z,18.70
2022-08-27T17:33:59.155Z,18.70
2022-08-27T17:36:27.795Z,18.70
2022-08-27T17:38:58.028Z,18.60
2022-08-27T17:41:49.113Z,18.60
2022-08-27T17:44:27.451Z,18.50
2022-08-27T17:46:57.306Z,18.40
2022-08-27T17:49:25.527Z,18.40
2022-08-27T17:51:56.748Z,18.30
2022-08-27T17:54:44.797Z,18.30
2022-08-27T17:57:19.676Z,18.20
2022-08-27T17:59:47.069Z,18.30
2022-08-27T18:02:36.210Z,18.20
2022-08-27T18:05:08.575Z,18.20
2022-08-27T18:07:40.179Z,18.10
2022-08-27T18:10:09.037Z,18.10
2022-08-27T18:12:36.611Z,18.10
2022-08-27T18:15:18.817Z,18.00
2022-08-27T18:17:53.256Z,18.00
2022-08-27T18:20:22.580Z,17.90
2022-08-27T18:22:57.752Z,18.00
2022-08-27T18:25:33.845Z,18.00
2022-08-27T18:28:07.108Z,18.00
2022-08-27T18:30:34.674Z,18.00
2022-08-27T18:33:02.831Z,17.90
2022-08-27T18:35:34.764Z,18.00
2022-08-27T18:38:04.683Z,18.00
2022-08-27T18:40:41.832Z,17.90
2022-08-27T18:43:08.799Z,18.00
2022-08-27T18:45:37.769Z,18.00
2022-08-27T18:48:17.964Z,17.90
2022-08-27T18:50:48.472Z,17.90
2022-08-27T18:53:18.725Z,17.90
2022-08-27T18:55:48.779Z,17.90
2022-08-27T18:58:25.232Z,17.90
2022-08-27T19:00:56.530Z,17.90
2022-08-27T19:03:27.768Z,17.90
2022-08-27T19:05:56.121Z,17.90
2022-08-27T19:08:24.342Z,17.90
2022-08-27T19:10:51.238Z,17.80
2022-08-27T19:13:21.530Z,17.80
2022-08-27T19:16:05.780Z,17.80
2022-08-27T19:18:34.615Z,17.80
2022-08-27T19:21:01.383Z,17.80
2022-08-27T19:23:28.494Z,17.80
2022-08-27T19:25:56.132Z,17.80
2022-08-27T19:28:28.385Z,17.70
2022-08-27T19:30:55.171Z,17.70
2022-08-27T19:33:22.653Z,17.70
2022-08-27T19:35:52.612Z,17.70
2022-08-27T19:38:19.755Z,17.70
2022-08-27T19:40:49.645Z,17.70
2022-08-27T19:43:16.579Z,17.70
2022-08-27T19:45:43.415Z,17.70
2022-08-27T19:48:12.464Z,17.70
2022-08-27T19:50:45.076Z,17.70
2022-08-27T19:53:13.406Z,17.70
2022-08-27T19:55:45.698Z,17.70
2022-08-27T19:58:13.933Z,17.60
2022-08-27T20:00:45.451Z,17.60
2022-08-27T20:03:12.451Z,17.60
2022-08-27T20:05:46.792Z,17.50
2022-08-27T20:08:14.019Z,17.50
2022-08-27T20:10:47.005Z,17.50
2022-08-27T20:13:14.697Z,17.50
2022-08-27T20:15:41.867Z,17.50
2022-08-27T20:18:10.264Z,17.50
2022-08-27T20:20:41.235Z,17.40
2022-08-27T20:23:09.105Z,17.40
2022-08-27T20:25:37.405Z,17.30
2022-08-27T20:28:22.258Z,17.30
2022-08-27T20:30:53.808Z,17.30
2022-08-27T20:33:22.731Z,17.30
2022-08-27T20:35:49.875Z,17.20
2022-08-27T20:38:21.903Z,17.20
2022-08-27T20:40:49.617Z,17.20
2022-08-27T20:43:17.015Z,17.20
2022-08-27T20:45:44.219Z,17.20
2022-08-27T20:48:12.702Z,17.30
2022-08-27T20:50:43.829Z,17.20
2022-08-27T20:53:14.127Z,17.20
2022-08-27T20:55:41.215Z,17.20
2022-08-27T20:58:28.198Z,17.20
2022-08-27T21:01:04.533Z,17.10
2022-08-27T21:03:34.095Z,17.10
2022-08-27T21:06:04.147Z,17.10
2022-08-27T21:08:31.201Z,17.10
2022-08-27T21:11:01.111Z,17.10
2022-08-27T21:13:29.100Z,17.10
2022-08-27T21:15:56.684Z,17.10
2022-08-27T21:18:32.609Z,17.10
2022-08-27T21:21:00.367Z,17.00
2022-08-27T21:23:31.134Z,17.00
2022-08-27T21:26:07.823Z,17.00
2022-08-27T21:28:34.644Z,17.00
2022-08-27T21:31:01.745Z,17.00
2022-08-27T21:33:28.477Z,17.00
2022-08-27T21:35:58.116Z,17.00
2022-08-27T21:38:34.334Z,17.00
2022-08-27T21:41:03.856Z,17.00
2022-08-27T21:43:30.938Z,17.10
2022-08-27T21:46:03.369Z,17.10
2022-08-27T21:48:30.487Z,17.10
2022-08-27T21:51:06.603Z,17.20
2022-08-27T21:53:33.689Z,17.20
2022-08-27T21:56:00.549Z,17.30
2022-08-27T21:58:35.345Z,17.30
2022-08-27T22:01:04.996Z,17.30
2022-08-27T22:03:33.788Z,17.40
2022-08-27T22:06:09.497Z,17.30
2022-08-27T22:08:39.279Z,17.40
2022-08-27T22:11:10.137Z,17.30
2022-08-27T22:13:37.971Z,17.30
2022-08-27T22:16:08.282Z,17.30
2022-08-27T22:18:38.583Z,17.30
2022-08-27T22:21:06.461Z,17.30
2022-08-27T22:23:36.117Z,17.30
2022-08-27T22:26:04.319Z,17.20
2022-08-27T22:28:43.183Z,17.30
2022-08-27T22:31:10.130Z,17.20
2022-08-27T22:33:37.116Z,17.20
2022-08-27T22:36:04.292Z,17.20
2022-08-27T22:38:34.518Z,17.20
2022-08-27T22:41:01.685Z,17.20
2022-08-27T22:43:28.788Z,17.20
2022-08-27T22:45:55.685Z,17.20
2022-08-27T22:48:22.850Z,17.20
2022-08-27T22:50:49.609Z,17.10
2022-08-27T22:53:16.771Z,17.10
2022-08-27T22:55:48.026Z,17.10
2022-08-27T22:58:24.348Z,17.10
2022-08-27T23:00:52.147Z,17.10
2022-08-27T23:03:23.192Z,17.10
2022-08-27T23:05:50.020Z,17.10
2022-08-27T23:08:19.043Z,17.10
2022-08-27T23:10:49.621Z,17.10
2022-08-27T23:13:19.593Z,17.00
2022-08-27T23:15:46.570Z,17.00
2022-08-27T23:18:16.928Z,17.00
2022-08-27T23:20:49.560Z,17.00
2022-08-27T23:23:24.437Z,17.00
2022-08-27T23:26:18.025Z,17.00
2022-08-27T23:28:45.316Z,16.90
2022-08-27T23:31:13.168Z,17.00
2022-08-27T23:33:43.559Z,17.00
2022-08-27T23:36:18.464Z,17.00
2022-08-27T23:38:46.192Z,17.00
2022-08-27T23:41:15.854Z,16.90
2022-08-27T23:43:44.197Z,17.00
2022-08-27T23:46:14.594Z,17.00
2022-08-27T23:48:41.265Z,17.00
2022-08-27T23:51:08.993Z,16.90
2022-08-27T23:53:37.696Z,17.00
2022-08-27T23:56:07.662Z,17.00
2022-08-27T23:58:36.589Z,17.00
